Time;durP1;ratioP1;P1;durP2;ratioP2;P2;SDS_P1;SDS_P2;PMS_P1;PMS_P2;Temp;Humidity;BMP_temperature;BMP_pressure;BME280_temperature;BME280_humidity;BME280_pressure;Samples;Min_cycle;Max_cycle;Signal;HPM_P1;HPM_P2
2022/07/05 00:00:19;;;;;;;2.53;1.20;;;18.80;69.60;;;;;;5021748;28;20085;-86
2022/07/05 00:02:45;;;;;;;0.95;0.88;;;18.80;70.50;;;;;;5038489;28;20029;-86
2022/07/05 00:05:11;;;;;;;0.85;0.70;;;18.80;70.70;;;;;;5038423;28;20126;-86
2022/07/05 00:07:37;;;;;;;0.95;0.88;;;18.70;70.50;;;;;;5038510;28;20514;-86
2022/07/05 00:10:03;;;;;;;1.08;1.02;;;18.70;70.30;;;;;;5071213;28;20656;-86
2022/07/05 00:12:32;;;;;;;1.10;0.68;;;18.60;70.30;;;;;;5037652;28;20612;-86
2022/07/05 00:14:59;;;;;;;0.63;0.60;;;18.60;70.90;;;;;;5005711;28;20060;-85
2022/07/05 00:17:25;;;;;;;1.75;0.77;;;18.60;71.50;;;;;;5069691;28;20024;-86
2022/07/05 00:19:51;;;;;;;1.27;0.88;;;18.60;71.60;;;;;;5054469;28;20024;-85
2022/07/05 00:22:17;;;;;;;0.60;0.60;;;18.50;71.20;;;;;;5034429;28;20402;-87
2022/07/05 00:24:42;;;;;;;1.85;0.80;;;18.50;71.60;;;;;;5018303;28;20045;-87
2022/07/05 00:27:08;;;;;;;0.80;0.80;;;18.50;71.80;;;;;;5054837;28;20037;-86
2022/07/05 00:29:34;;;;;;;0.60;0.60;;;18.40;71.70;;;;;;5016985;28;20128;-85
2022/07/05 00:32:00;;;;;;;0.80;0.80;;;18.40;72.00;;;;;;5033371;28;20448;-86
2022/07/05 00:34:26;;;;;;;1.00;1.00;;;18.40;72.30;;;;;;5034544;28;20369;-86
2022/07/05 00:36:52;;;;;;;0.93;0.80;;;18.40;72.80;;;;;;5038755;28;20162;-87
2022/07/05 00:39:18;;;;;;;1.48;0.80;;;18.40;72.90;;;;;;5037495;28;20028;-86
2022/07/05 00:41:44;;;;;;;3.38;0.80;;;18.40;72.90;;;;;;5071263;28;20063;-86
2022/07/05 00:44:11;;;;;;;1.40;0.80;;;18.30;72.30;;;;;;5021698;28;20585;-87
2022/07/05 00:46:38;;;;;;;3.15;0.88;;;18.30;72.10;;;;;;5053983;28;20039;-86
2022/07/05 00:49:05;;;;;;;2.97;0.80;;;18.30;72.70;;;;;;5037533;28;20058;-86
2022/07/05 00:51:36;;;;;;;0.70;0.70;;;18.20;72.30;;;;;;5037973;28;20099;-86
2022/07/05 00:54:02;;;;;;;1.10;0.70;;;18.20;72.60;;;;;;5037489;28;20044;-86
2022/07/05 00:56:28;;;;;;;1.08;0.80;;;18.20;72.90;;;;;;5021274;28;20112;-85
2022/07/05 00:58:54;;;;;;;0.70;0.70;;;18.10;72.80;;;;;;5067769;28;20395;-86
2022/07/05 01:01:20;;;;;;;1.02;0.90;;;18.10;72.90;;;;;;5051177;28;20039;-87
2022/07/05 01:03:46;;;;;;;0.70;0.70;;;18.00;72.80;;;;;;5036458;28;20028;-85
2022/07/05 01:06:13;;;;;;;0.70;0.68;;;18.00;73.00;;;;;;5057806;28;20120;-86
2022/07/05 01:08:41;;;;;;;0.77;0.77;;;18.00;73.20;;;;;;5051761;28;20029;-86
2022/07/05 01:11:09;;;;;;;0.63;0.63;;;17.90;73.30;;;;;;5053821;28;20108;-87
2022/07/05 01:13:36;;;;;;;0.60;0.60;;;17.90;73.50;;;;;;5050587;28;20063;-86
2022/07/05 01:16:03;;;;;;;0.70;0.70;;;17.80;73.50;;;;;;5040687;28;20525;-86
2022/07/05 01:18:31;;;;;;;0.73;0.60;;;17.80;73.70;;;;;;5053527;28;20028;-87
2022/07/05 01:20:58;;;;;;;1.73;0.90;;;17.80;74.00;;;;;;5040329;28;20039;-86
2022/07/05 01:23:27;;;;;;;1.95;0.80;;;17.70;73.90;;;;;;5033667;28;20044;-86
2022/07/05 01:25:54;;;;;;;0.75;0.70;;;17.70;74.10;;;;;;5036303;28;20112;-85
2022/07/05 01:28:20;;;;;;;2.42;0.90;;;17.60;74.20;;;;;;5053463;28;20036;-87
2022/07/05 01:30:47;;;;;;;0.70;0.70;;;17.60;74.50;;;;;;5018374;28;20112;-86
2022/07/05 01:33:13;;;;;;;1.55;0.70;;;17.60;74.30;;;;;;5034115;28;20036;-86
2022/07/05 01:35:39;;;;;;;0.77;0.77;;;17.50;74.20;;;;;;5028164;28;20437;-87
2022/07/05 01:38:04;;;;;;;0.77;0.77;;;17.50;74.70;;;;;;5053056;28;20094;-86
2022/07/05 01:40:31;;;;;;;0.70;0.68;;;17.50;74.60;;;;;;5037191;28;20111;-86
2022/07/05 01:42:57;;;;;;;0.55;0.55;;;17.40;74.50;;;;;;5034046;28;20116;-87
2022/07/05 01:45:42;;;;;;;0.90;0.90;;;17.40;74.50;;;;;;5035317;28;20065;-86
2022/07/05 01:48:10;;;;;;;1.00;0.60;;;17.40;74.60;;;;;;5053508;28;20045;-86
2022/07/05 01:51:01;;;;;;;2.47;0.70;;;17.30;74.40;;;;;;5053292;28;20398;-86
2022/07/05 01:53:29;;;;;;;1.10;0.68;;;17.30;74.30;;;;;;5053549;28;20040;-86
2022/07/05 01:56:00;;;;;;;0.70;0.60;;;17.30;74.80;;;;;;5020119;28;20068;-86
2022/07/05 01:58:27;;;;;;;1.63;0.70;;;17.30;74.40;;;;;;5034021;28;20040;-86
2022/07/05 02:00:54;;;;;;;2.45;0.90;;;17.20;74.60;;;;;;5036803;28;20064;-86
2022/07/05 02:03:20;;;;;;;1.65;0.90;;;17.20;74.70;;;;;;5037246;28;20025;-86
2022/07/05 02:05:47;;;;;;;1.90;0.70;;;17.20;75.00;;;;;;5050212;28;20036;-87
2022/07/05 02:08:18;;;;;;;2.40;0.70;;;17.10;74.80;;;;;;5050487;28;20147;-86
2022/07/05 02:10:44;;;;;;;1.42;0.70;;;17.10;75.20;;;;;;5052951;28;20032;-86
2022/07/05 02:13:11;;;;;;;2.75;0.70;;;17.10;75.30;;;;;;5037064;28;20028;-85
2022/07/05 02:15:39;;;;;;;0.70;0.70;;;17.00;74.90;;;;;;5053364;28;20115;-85
2022/07/05 02:18:07;;;;;;;0.60;0.60;;;17.00;74.90;;;;;;5020799;28;20086;-86
2022/07/05 02:20:37;;;;;;;0.70;0.50;;;17.00;75.30;;;;;;5022740;28;20440;-86
2022/07/05 02:23:03;;;;;;;2.50;0.63;;;16.90;75.30;;;;;;5038065;28;20025;-86
2022/07/05 02:25:29;;;;;;;0.70;0.60;;;16.90;75.50;;;;;;5007697;28;20032;-85
2022/07/05 02:27:58;;;;;;;0.70;0.70;;;16.90;75.60;;;;;;5031922;28;20706;-86
2022/07/05 02:30:23;;;;;;;1.00;0.70;;;16.90;75.70;;;;;;5057188;28;20036;-86
2022/07/05 02:32:50;;;;;;;0.80;0.70;;;16.90;76.00;;;;;;5024229;28;20079;-86
2022/07/05 02:35:17;;;;;;;0.60;0.60;;;16.80;76.20;;;;;;5040256;28;20033;-85
2022/07/05 02:37:42;;;;;;;0.70;0.70;;;16.80;76.20;;;;;;5057329;28;20034;-87
2022/07/05 02:40:13;;;;;;;1.95;0.70;;;16.80;75.90;;;;;;5043226;28;20116;-85
2022/07/05 02:42:42;;;;;;;1.35;0.80;;;16.70;76.40;;;;;;5021520;28;20029;-85
2022/07/05 02:45:11;;;;;;;0.57;0.57;;;16.60;76.40;;;;;;5021377;28;20036;-85
2022/07/05 02:47:38;;;;;;;0.73;0.63;;;16.70;76.30;;;;;;5040361;28;20581;-86
2022/07/05 02:50:09;;;;;;;0.70;0.70;;;16.60;76.70;;;;;;5039419;28;20128;-86
2022/07/05 02:52:38;;;;;;;0.73;0.70;;;16.60;76.60;;;;;;5043689;28;20119;-87
2022/07/05 02:55:05;;;;;;;1.33;0.80;;;16.60;76.80;;;;;;5038133;28;20043;-85
2022/07/05 02:57:31;;;;;;;0.95;0.80;;;16.50;77.00;;;;;;5023583;28;20032;-85
2022/07/05 02:59:59;;;;;;;0.60;0.60;;;16.50;77.10;;;;;;5023910;28;20055;-86
2022/07/05 03:02:35;;;;;;;;;;;16.50;77.10;;;;;;5023359;28;20568;-87
2022/07/05 03:05:02;;;;;;;0.88;0.88;;;16.50;77.30;;;;;;5056244;28;19987;-86
2022/07/05 03:07:28;;;;;;;0.40;0.40;;;16.50;77.60;;;;;;5032003;28;20062;-86
2022/07/05 03:09:54;;;;;;;0.85;0.73;;;16.40;77.40;;;;;;5050724;28;20821;-86
2022/07/05 03:12:21;;;;;;;1.13;0.57;;;16.40;77.40;;;;;;5039924;28;20032;-87
2022/07/05 03:14:47;;;;;;;1.15;0.65;;;16.40;77.40;;;;;;5023145;28;20051;-86
2022/07/05 03:17:14;;;;;;;1.20;1.10;;;16.40;77.50;;;;;;5042921;28;20032;-86
2022/07/05 03:19:40;;;;;;;0.70;0.70;;;16.30;77.50;;;;;;5039526;28;20024;-86
2022/07/05 03:22:08;;;;;;;1.98;0.70;;;16.30;78.30;;;;;;5039982;28;20055;-86
2022/07/05 03:24:36;;;;;;;0.68;0.65;;;16.30;77.50;;;;;;5024237;28;20029;-85
2022/07/05 03:27:03;;;;;;;0.63;0.63;;;16.30;77.50;;;;;;5039905;28;20123;-85
2022/07/05 03:29:29;;;;;;;0.70;0.70;;;16.30;77.50;;;;;;5039500;28;20402;-85
2022/07/05 03:31:55;;;;;;;0.95;0.70;;;16.30;77.40;;;;;;5010621;28;20029;-85
2022/07/05 03:34:22;;;;;;;0.70;0.70;;;16.20;77.70;;;;;;5023631;28;20025;-86
2022/07/05 03:36:48;;;;;;;2.15;0.50;;;16.20;77.70;;;;;;5039725;28;20036;-85
2022/07/05 03:39:17;;;;;;;1.48;0.60;;;16.20;77.60;;;;;;5024231;28;20060;-86
2022/07/05 03:41:44;;;;;;;2.92;0.70;;;16.20;77.70;;;;;;5023856;28;20570;-86
2022/07/05 03:44:13;;;;;;;0.50;0.50;;;16.20;77.40;;;;;;5024564;28;20036;-87
2022/07/05 03:46:39;;;;;;;0.70;0.70;;;16.20;77.50;;;;;;5040029;28;20035;-88
2022/07/05 03:49:04;;;;;;;0.55;0.50;;;16.20;77.60;;;;;;5040044;28;20037;-86
2022/07/05 03:51:31;;;;;;;0.60;0.60;;;16.20;78.20;;;;;;5039427;28;20082;-86
2022/07/05 03:53:59;;;;;;;0.40;0.40;;;16.10;77.50;;;;;;5055329;28;20035;-87
2022/07/05 03:56:26;;;;;;;0.60;0.60;;;16.10;78.30;;;;;;5019122;28;20056;-87
2022/07/05 03:58:58;;;;;;;0.40;0.40;;;16.20;78.60;;;;;;5018865;28;20689;-86
2022/07/05 04:01:23;;;;;;;0.50;0.50;;;16.10;78.50;;;;;;5029006;28;20077;-87
2022/07/05 04:03:49;;;;;;;0.57;0.57;;;16.10;78.70;;;;;;5022246;28;20035;-86
2022/07/05 04:06:16;;;;;;;0.95;0.80;;;16.10;79.00;;;;;;5022842;28;20040;-87
2022/07/05 04:08:42;;;;;;;1.00;0.80;;;16.10;79.30;;;;;;5021584;28;20083;-87
2022/07/05 04:11:09;;;;;;;0.93;0.80;;;16.10;79.80;;;;;;5021941;28;20070;-87
2022/07/05 04:13:37;;;;;;;0.80;0.80;;;16.10;79.80;;;;;;5038543;28;20035;-86
2022/07/05 04:16:03;;;;;;;2.13;0.80;;;16.10;80.00;;;;;;5038395;28;20402;-85
2022/07/05 04:18:30;;;;;;;0.68;0.68;;;16.10;80.00;;;;;;5038448;28;20025;-86
2022/07/05 04:20:57;;;;;;;0.95;0.80;;;16.20;80.00;;;;;;5021365;28;20037;-87
2022/07/05 04:23:24;;;;;;;0.50;0.50;;;16.20;79.90;;;;;;5018412;28;20122;-87
2022/07/05 04:25:53;;;;;;;0.85;0.80;;;16.20;79.40;;;;;;5037463;28;20048;-87
2022/07/05 04:28:25;;;;;;;0.70;0.70;;;16.20;79.20;;;;;;5024194;28;20036;-87
2022/07/05 04:30:54;;;;;;;0.60;0.60;;;16.20;79.10;;;;;;5040857;28;20039;-87
2022/07/05 04:33:21;;;;;;;0.60;0.60;;;16.30;78.80;;;;;;5038362;28;20150;-87
2022/07/05 04:35:50;;;;;;;0.70;0.70;;;16.30;78.80;;;;;;5038282;28;20049;-86
2022/07/05 04:38:17;;;;;;;0.60;0.60;;;16.30;79.20;;;;;;5038167;28;20028;-87
2022/07/05 04:40:43;;;;;;;0.40;0.40;;;16.30;78.70;;;;;;5035021;28;20033;-86
2022/07/05 04:43:09;;;;;;;0.52;0.52;;;16.40;78.70;;;;;;5034790;28;20506;-86
2022/07/05 04:45:35;;;;;;;1.73;0.50;;;16.40;78.80;;;;;;5038415;28;20597;-87
2022/07/05 04:48:01;;;;;;;2.03;0.70;;;16.50;78.90;;;;;;5038227;28;20094;-88
2022/07/05 04:50:29;;;;;;;0.52;0.45;;;16.50;78.70;;;;;;5021671;28;20052;-86
2022/07/05 04:52:55;;;;;;;0.73;0.57;;;16.50;78.80;;;;;;5065643;28;20036;-86
2022/07/05 04:55:21;;;;;;;2.58;0.75;;;16.60;78.70;;;;;;5057030;28;20042;-87
2022/07/05 04:57:47;;;;;;;1.67;0.60;;;16.60;78.50;;;;;;5052923;28;20021;-86
2022/07/05 05:00:14;;;;;;;2.38;0.85;;;16.60;78.40;;;;;;5054365;28;20064;-87
2022/07/05 05:02:40;;;;;;;0.60;0.60;;;16.70;78.40;;;;;;5038347;28;20029;-86
2022/07/05 05:05:07;;;;;;;1.35;0.73;;;16.70;78.40;;;;;;5038709;28;20032;-86
2022/07/05 05:07:33;;;;;;;0.70;0.70;;;16.80;78.10;;;;;;5037782;28;20131;-86
2022/07/05 05:09:59;;;;;;;0.40;0.40;;;16.90;78.10;;;;;;5021465;28;20127;-87
2022/07/05 05:12:25;;;;;;;0.90;0.60;;;16.90;78.00;;;;;;5053620;28;20436;-87
2022/07/05 05:14:51;;;;;;;0.90;0.50;;;17.00;77.60;;;;;;5021218;28;20124;-87
2022/07/05 05:17:17;;;;;;;1.05;0.77;;;17.10;77.20;;;;;;5015870;28;20360;-85
2022/07/05 05:19:44;;;;;;;0.65;0.60;;;17.10;77.30;;;;;;5034823;28;20025;-85
2022/07/05 05:22:10;;;;;;;1.17;0.52;;;17.20;77.30;;;;;;5047998;28;20048;-86
2022/07/05 05:24:36;;;;;;;0.85;0.65;;;17.30;77.10;;;;;;5018486;28;20037;-85
2022/07/05 05:27:02;;;;;;;0.57;0.52;;;17.30;76.80;;;;;;5045976;28;20131;-86
2022/07/05 05:29:28;;;;;;;0.65;0.60;;;17.40;76.30;;;;;;5055151;28;20033;-86
2022/07/05 05:31:53;;;;;;;0.60;0.60;;;17.60;75.70;;;;;;5038401;28;20433;-86
2022/07/05 05:34:19;;;;;;;2.45;0.70;;;17.70;73.90;;;;;;5034949;28;20091;-85
2022/07/05 05:36:45;;;;;;;1.80;0.70;;;18.10;74.40;;;;;;5021800;28;20032;-86
2022/07/05 05:39:11;;;;;;;0.70;0.70;;;18.50;72.60;;;;;;5037397;28;20074;-87
2022/07/05 05:41:36;;;;;;;1.20;0.63;;;19.00;70.40;;;;;;5068738;28;20025;-86
2022/07/05 05:44:05;;;;;;;0.52;0.52;;;19.50;70.30;;;;;;5059557;28;20461;-86
2022/07/05 05:46:31;;;;;;;0.63;0.52;;;20.10;68.50;;;;;;5040234;28;20036;-85
2022/07/05 05:48:58;;;;;;;0.52;0.52;;;20.60;66.40;;;;;;5026422;28;20043;-87
2022/07/05 05:51:24;;;;;;;2.30;0.60;;;21.10;63.60;;;;;;5061427;28;20368;-87
2022/07/05 05:53:50;;;;;;;0.68;0.52;;;21.60;61.90;;;;;;5044471;28;20499;-86
2022/07/05 05:56:15;;;;;;;0.93;0.63;;;22.20;61.30;;;;;;5027694;28;20032;-86
2022/07/05 05:58:41;;;;;;;1.30;0.60;;;22.50;59.70;;;;;;5020535;28;20629;-86
2022/07/05 06:01:07;;;;;;;1.70;0.50;;;23.10;58.80;;;;;;5048492;28;20540;-85
2022/07/05 06:03:33;;;;;;;1.80;0.70;;;23.50;56.90;;;;;;5060219;28;20506;-86
2022/07/05 06:05:58;;;;;;;1.05;0.63;;;23.60;54.40;;;;;;5055028;28;20036;-86
2022/07/05 06:08:24;;;;;;;0.60;0.60;;;24.00;55.90;;;;;;5058772;28;20044;-85
2022/07/05 06:10:50;;;;;;;1.92;0.60;;;24.40;55.80;;;;;;5025813;28;20047;-86
2022/07/05 06:13:16;;;;;;;0.93;0.90;;;24.50;54.10;;;;;;5021280;28;20037;-87
2022/07/05 06:15:42;;;;;;;1.33;0.43;;;24.90;54.80;;;;;;5038160;28;20036;-87
2022/07/05 06:18:10;;;;;;;0.50;0.50;;;25.40;54.30;;;;;;5054932;28;20028;-86
2022/07/05 06:20:37;;;;;;;0.60;0.50;;;25.70;51.90;;;;;;5037810;28;20496;-87
2022/07/05 06:23:05;;;;;;;0.70;0.70;;;25.80;53.20;;;;;;5037800;28;20037;-86
2022/07/05 06:25:32;;;;;;;0.55;0.55;;;25.90;52.80;;;;;;5045957;28;20127;-87
2022/07/05 06:28:08;;;;;;;1.85;1.00;;;25.90;51.10;;;;;;5045578;28;20484;-87
2022/07/05 06:30:37;;;;;;;4.53;0.70;;;26.00;51.90;;;;;;5073742;28;20093;-87
2022/07/05 06:33:04;;;;;;;0.60;0.60;;;26.20;51.40;;;;;;5056497;28;20032;-88
2022/07/05 06:35:30;;;;;;;0.77;0.70;;;26.70;51.60;;;;;;5051990;28;20032;-87
2022/07/05 06:38:00;;;;;;;2.85;0.80;;;26.90;50.50;;;;;;5024044;28;20052;-86
2022/07/05 06:40:28;;;;;;;2.17;0.60;;;27.00;49.00;;;;;;5037879;28;20060;-87
2022/07/05 06:42:56;;;;;;;2.15;0.50;;;26.90;49.90;;;;;;5062439;28;20086;-86
2022/07/05 06:45:29;;;;;;;1.17;0.75;;;27.20;50.60;;;;;;5037821;28;20037;-87
2022/07/05 06:47:58;;;;;;;0.63;0.63;;;27.60;48.90;;;;;;5053617;28;20094;-87
2022/07/05 06:50:26;;;;;;;0.63;0.63;;;27.70;49.20;;;;;;5057754;28;20029;-86
2022/07/05 06:52:52;;;;;;;1.95;0.70;;;28.00;48.40;;;;;;5040563;28;20033;-86
2022/07/05 06:55:18;;;;;;;4.63;0.77;;;28.00;48.20;;;;;;5057514;28;20414;-87
2022/07/05 06:57:45;;;;;;;1.75;0.55;;;28.00;46.60;;;;;;5057596;28;20028;-86
2022/07/05 07:00:11;;;;;;;0.52;0.50;;;28.00;48.40;;;;;;5021312;28;20059;-87
2022/07/05 07:02:37;;;;;;;0.60;0.60;;;28.40;47.90;;;;;;5041556;28;20029;-86
2022/07/05 07:05:03;;;;;;;1.90;0.70;;;29.10;47.20;;;;;;5042124;28;20418;-86
2022/07/05 07:10:18;;;;;;;6.07;3.10;;;29.50;46.10;;;;;;5038163;28;20036;-86
2022/07/05 07:12:44;;;;;;;0.55;0.55;;;29.80;45.40;;;;;;5069698;28;20040;-85
2022/07/05 07:15:10;;;;;;;2.10;0.98;;;30.10;44.90;;;;;;5059250;28;20025;-87
2022/07/05 07:17:35;;;;;;;2.03;1.83;;;30.40;44.30;;;;;;5037309;28;20021;-86
2022/07/05 07:20:01;;;;;;;0.70;0.70;;;30.40;44.10;;;;;;5036568;28;20446;-87
2022/07/05 07:22:27;;;;;;;0.73;0.73;;;30.20;43.30;;;;;;5052889;28;20061;-87
2022/07/05 07:24:53;;;;;;;0.57;0.57;;;30.40;43.50;;;;;;5039602;28;20075;-87
2022/07/05 07:27:19;;;;;;;0.77;0.77;;;29.90;41.70;;;;;;5055635;28;20033;-84
2022/07/05 07:29:45;;;;;;;2.83;1.00;;;29.60;43.90;;;;;;5039385;28;20501;-87
2022/07/05 07:32:11;;;;;;;0.75;0.65;;;29.20;45.10;;;;;;5055487;28;20039;-86
2022/07/05 07:34:37;;;;;;;0.52;0.52;;;29.50;45.30;;;;;;5039182;28;20487;-87
2022/07/05 07:37:04;;;;;;;1.35;0.70;;;29.50;45.00;;;;;;5047312;28;20418;-87
2022/07/05 07:39:31;;;;;;;1.27;0.60;;;29.90;44.90;;;;;;5056038;28;20029;-86
2022/07/05 07:41:57;;;;;;;0.50;0.50;;;29.70;47.50;;;;;;5041867;28;20033;-85
2022/07/05 07:44:23;;;;;;;1.58;1.00;;;29.90;47.90;;;;;;5059709;28;20024;-85
2022/07/05 07:46:50;;;;;;;1.25;0.70;;;30.10;47.30;;;;;;5049582;28;20043;-85
2022/07/05 07:49:16;;;;;;;1.60;0.80;;;30.30;46.20;;;;;;5042806;28;20120;-85
2022/07/05 07:51:42;;;;;;;0.63;0.55;;;30.50;47.70;;;;;;5047967;28;20052;-85
2022/07/05 07:54:08;;;;;;;0.60;0.60;;;30.80;46.00;;;;;;5066130;28;20036;-85
2022/07/05 07:56:34;;;;;;;0.98;0.60;;;31.00;43.70;;;;;;5060594;28;20128;-86
2022/07/05 07:58:59;;;;;;;2.55;0.80;;;31.30;43.00;;;;;;5044296;28;20036;-85
2022/07/05 08:01:25;;;;;;;0.93;0.60;;;31.50;42.20;;;;;;5053060;28;20650;-85
2022/07/05 08:03:51;;;;;;;1.63;0.90;;;31.60;42.50;;;;;;5039818;28;20035;-85
2022/07/05 08:06:17;;;;;;;5.47;0.90;;;31.60;41.50;;;;;;5027817;28;20025;-87
2022/07/05 08:08:47;;;;;;;1.13;0.60;;;31.10;40.70;;;;;;5030456;28;20473;-86
2022/07/05 08:11:14;;;;;;;4.25;0.90;;;30.60;41.10;;;;;;5056974;28;20301;-86
2022/07/05 08:13:40;;;;;;;0.70;0.70;;;30.30;41.50;;;;;;5060620;28;20020;-84
2022/07/05 08:16:09;;;;;;;0.73;0.73;;;30.00;44.20;;;;;;5046781;28;20044;-85
2022/07/05 08:21:31;;;;;;;1.42;0.80;;;29.60;44.00;;;;;;5073194;28;20040;-85
2022/07/05 08:24:17;;;;;;;1.98;0.70;;;29.30;43.80;;;;;;5063112;28;20063;-84
2022/07/05 08:26:43;;;;;;;1.27;0.50;;;29.10;42.30;;;;;;5036266;28;20694;-84
2022/07/05 08:29:11;;;;;;;0.98;0.60;;;28.80;41.90;;;;;;5035616;28;20082;-85
2022/07/05 08:31:43;;;;;;;0.85;0.52;;;28.50;42.10;;;;;;5018000;28;20032;-85
2022/07/05 08:34:09;;;;;;;0.85;0.70;;;28.20;44.60;;;;;;5035378;28;20032;-85
2022/07/05 08:36:35;;;;;;;0.70;0.60;;;28.10;46.00;;;;;;5032501;28;20029;-84
2022/07/05 08:39:01;;;;;;;0.93;0.60;;;28.10;46.30;;;;;;5023047;28;20029;-87
2022/07/05 08:41:28;;;;;;;3.00;0.70;;;28.10;45.40;;;;;;5008715;28;20044;-85
2022/07/05 08:43:57;;;;;;;0.50;0.40;;;28.10;44.40;;;;;;5011422;28;20033;-86
2022/07/05 08:46:24;;;;;;;0.65;0.38;;;28.00;46.00;;;;;;5044500;28;20024;-85
2022/07/05 08:48:51;;;;;;;5.28;0.60;;;27.70;46.70;;;;;;5033140;28;20033;-87
2022/07/05 08:51:21;;;;;;;1.00;0.52;;;27.30;47.40;;;;;;5063831;28;20031;-85
2022/07/05 08:53:49;;;;;;;0.95;0.70;;;26.90;47.30;;;;;;5041597;28;20447;-86
2022/07/05 08:56:15;;;;;;;1.20;0.40;;;26.50;46.90;;;;;;5038103;28;20037;-86
2022/07/05 08:58:41;;;;;;;0.50;0.50;;;26.10;47.70;;;;;;5037747;28;20032;-85
2022/07/05 09:01:08;;;;;;;0.77;0.40;;;26.10;48.20;;;;;;5052081;28;20024;-84
2022/07/05 09:03:44;;;;;;;0.65;0.60;;;26.30;46.40;;;;;;5055219;28;20107;-86
2022/07/05 09:06:17;;;;;;;0.80;0.80;;;26.50;48.50;;;;;;5047973;28;20032;-84
2022/07/05 09:08:44;;;;;;;1.25;0.50;;;26.80;46.90;;;;;;5076030;28;20558;-85
2022/07/05 09:11:15;;;;;;;0.55;0.45;;;27.10;44.40;;;;;;5068246;28;20028;-84
2022/07/05 09:13:48;;;;;;;1.05;0.50;;;27.20;45.00;;;;;;5031404;28;20514;-86
2022/07/05 09:16:14;;;;;;;0.60;0.55;;;27.30;44.40;;;;;;5046455;28;20040;-87
2022/07/05 09:18:45;;;;;;;0.52;0.52;;;27.20;44.70;;;;;;5052178;28;20024;-87
2022/07/05 09:21:16;;;;;;;1.15;0.80;;;27.30;45.10;;;;;;5041294;28;20021;-87
2022/07/05 09:23:43;;;;;;;1.00;0.70;;;27.10;41.90;;;;;;5061075;28;20033;-86
2022/07/05 09:26:09;;;;;;;1.00;0.50;;;27.10;42.60;;;;;;5058046;28;20033;-87
2022/07/05 09:28:35;;;;;;;0.65;0.50;;;27.10;43.40;;;;;;5030759;28;20056;-87
2022/07/05 09:31:01;;;;;;;1.33;0.43;;;27.10;45.30;;;;;;5035765;28;20025;-87
2022/07/05 09:33:27;;;;;;;0.50;0.50;;;27.10;44.70;;;;;;5037065;28;20506;-87
2022/07/05 09:35:57;;;;;;;0.77;0.50;;;27.00;44.40;;;;;;5031079;28;20064;-84
2022/07/05 09:38:24;;;;;;;0.80;0.40;;;26.90;44.20;;;;;;5008840;28;20025;-86
2022/07/05 09:40:52;;;;;;;1.00;0.70;;;26.80;47.60;;;;;;5057555;28;20054;-86
2022/07/05 09:43:20;;;;;;;1.45;0.55;;;26.80;45.60;;;;;;5033281;28;20032;-87
2022/07/05 09:46:00;;;;;;;0.65;0.60;;;26.70;44.00;;;;;;5044883;28;20075;-87
2022/07/05 09:48:27;;;;;;;1.33;0.60;;;26.70;42.70;;;;;;5067640;28;20029;-87
2022/07/05 09:51:05;;;;;;;1.52;0.50;;;26.70;44.90;;;;;;5034840;28;20043;-86
2022/07/05 09:54:01;;;;;;;0.80;0.60;;;26.60;45.50;;;;;;5029682;28;20063;-85
2022/07/05 09:56:29;;;;;;;0.65;0.65;;;26.70;45.40;;;;;;5029337;28;20051;-85
2022/07/05 09:58:55;;;;;;;0.50;0.50;;;26.60;44.60;;;;;;5030821;28;20422;-87
2022/07/05 10:01:30;;;;;;;1.67;0.60;;;26.60;45.70;;;;;;5037883;28;20037;-86
2022/07/05 10:03:57;;;;;;;;;;;26.60;46.50;;;;;;5042054;28;20035;-86
2022/07/05 10:06:24;;;;;;;0.60;0.60;;;26.50;47.00;;;;;;5051350;28;19915;-85
2022/07/05 10:08:52;;;;;;;0.60;0.60;;;26.40;45.80;;;;;;5039102;28;20156;-86
2022/07/05 10:11:22;;;;;;;0.70;0.60;;;26.20;46.70;;;;;;5034810;28;20032;-85
2022/07/05 10:13:50;;;;;;;1.15;0.57;;;26.00;43.10;;;;;;5048110;28;20037;-85
2022/07/05 10:16:17;;;;;;;0.75;0.75;;;25.80;44.90;;;;;;5049225;28;20032;-85
2022/07/05 10:18:51;;;;;;;1.10;0.60;;;25.60;44.90;;;;;;5060389;28;20029;-85
2022/07/05 10:21:17;;;;;;;0.40;0.40;;;25.50;45.30;;;;;;5018555;28;20024;-85
2022/07/05 10:23:55;;;;;;;0.85;0.40;;;25.60;45.90;;;;;;5030574;28;20064;-87
2022/07/05 10:26:22;;;;;;;0.55;0.40;;;25.60;47.60;;;;;;5025775;28;20116;-85
2022/07/05 10:28:50;;;;;;;2.05;0.60;;;25.80;48.90;;;;;;5078392;28;20037;-85
2022/07/05 10:31:17;;;;;;;1.35;0.77;;;25.90;47.90;;;;;;5019718;28;20025;-85
2022/07/05 10:33:44;;;;;;;0.57;0.40;;;26.00;46.70;;;;;;5031960;28;20037;-85
2022/07/05 10:36:11;;;;;;;1.48;0.80;;;26.10;48.30;;;;;;5034098;28;20067;-86
2022/07/05 10:38:44;;;;;;;0.73;0.50;;;26.10;47.50;;;;;;5034056;28;20025;-85
2022/07/05 10:41:17;;;;;;;1.98;0.57;;;26.10;46.40;;;;;;5019466;28;20524;-86
2022/07/05 10:43:42;;;;;;;0.60;0.60;;;26.20;47.00;;;;;;5050135;28;20033;-86
2022/07/05 10:46:08;;;;;;;0.57;0.57;;;26.30;46.30;;;;;;5035908;28;20074;-86
2022/07/05 10:48:35;;;;;;;0.75;0.70;;;26.40;45.90;;;;;;5056944;28;20629;-87
2022/07/05 10:51:07;;;;;;;1.00;0.50;;;26.50;46.70;;;;;;5052217;28;20639;-87
2022/07/05 10:53:36;;;;;;;1.42;0.75;;;26.60;45.30;;;;;;5047169;28;20024;-86
2022/07/05 10:56:05;;;;;;;0.45;0.45;;;26.70;47.20;;;;;;5057045;28;20021;-86
2022/07/05 10:58:36;;;;;;;0.60;0.60;;;26.90;45.20;;;;;;5034472;28;20025;-87
2022/07/05 11:01:20;;;;;;;1.02;0.60;;;27.00;44.70;;;;;;5051357;28;20032;-86
2022/07/05 11:03:48;;;;;;;1.60;0.50;;;27.00;46.30;;;;;;5035640;28;20767;-88
2022/07/05 11:06:24;;;;;;;0.77;0.60;;;27.00;46.30;;;;;;5059816;28;20107;-87
2022/07/05 11:08:59;;;;;;;1.00;0.60;;;27.00;45.80;;;;;;5031639;28;20119;-87
2022/07/05 11:11:29;;;;;;;0.88;0.82;;;27.00;47.10;;;;;;5064966;28;20064;-85
2022/07/05 11:13:58;;;;;;;1.60;0.60;;;27.00;46.70;;;;;;5051092;28;20028;-85
2022/07/05 11:16:25;;;;;;;0.82;0.60;;;27.10;44.90;;;;;;5030876;28;20111;-86
2022/07/05 11:18:53;;;;;;;1.02;0.52;;;27.10;45.70;;;;;;5045072;28;20437;-85
2022/07/05 11:21:20;;;;;;;0.52;0.50;;;27.20;43.70;;;;;;5063780;28;20035;-86
2022/07/05 11:23:46;;;;;;;0.40;0.40;;;27.30;44.60;;;;;;5035470;28;20032;-86
2022/07/05 11:26:13;;;;;;;1.38;0.60;;;27.30;41.70;;;;;;5031303;28;20411;-86
2022/07/05 11:28:47;;;;;;;1.40;0.50;;;27.50;45.80;;;;;;5038407;28;20028;-85
2022/07/05 11:31:42;;;;;;;0.82;0.50;;;27.70;40.10;;;;;;5038186;28;20039;-86
2022/07/05 11:34:14;;;;;;;0.80;0.73;;;27.70;45.10;;;;;;5044487;28;20056;-88
2022/07/05 11:36:40;;;;;;;1.80;0.80;;;27.90;44.30;;;;;;5052533;28;20039;-86
2022/07/05 11:39:20;;;;;;;1.63;0.50;;;28.10;45.60;;;;;;5069036;28;20032;-88
2022/07/05 11:41:49;;;;;;;0.80;0.70;;;28.30;43.90;;;;;;5027792;28;20109;-87
2022/07/05 11:44:16;;;;;;;1.58;0.57;;;28.50;43.50;;;;;;5039896;28;20426;-87
2022/07/05 11:46:43;;;;;;;1.00;0.50;;;28.60;41.70;;;;;;5071550;28;20059;-86
2022/07/05 11:49:08;;;;;;;0.60;0.60;;;28.70;42.00;;;;;;5041332;28;20079;-88
2022/07/05 11:51:34;;;;;;;1.35;0.55;;;28.90;43.60;;;;;;5018285;28;20037;-88
2022/07/05 11:54:01;;;;;;;1.15;0.60;;;28.90;42.90;;;;;;5047041;28;20446;-87
2022/07/05 11:56:27;;;;;;;1.15;0.50;;;28.90;43.00;;;;;;5059983;28;20029;-88
2022/07/05 11:58:53;;;;;;;0.68;0.55;;;28.70;40.90;;;;;;5070022;28;20020;-87
2022/07/05 12:01:19;;;;;;;0.40;0.40;;;28.50;42.70;;;;;;5025368;28;20041;-87
2022/07/05 12:04:03;;;;;;;0.40;0.40;;;28.20;44.40;;;;;;5005051;28;20483;-88
2022/07/05 12:06:28;;;;;;;0.73;0.52;;;27.80;42.80;;;;;;5037504;28;20098;-87
2022/07/05 12:09:05;;;;;;;1.05;0.65;;;27.60;44.60;;;;;;5034454;28;20048;-86
2022/07/05 12:14:23;;;;;;;0.70;0.45;;;27.50;43.00;;;;;;5068165;28;19920;-86
2022/07/05 12:17:10;;;;;;;0.57;0.43;;;27.70;43.10;;;;;;5052399;28;20025;-86
2022/07/05 12:19:35;;;;;;;0.50;0.50;;;27.80;41.90;;;;;;5046655;28;20047;-87
2022/07/05 12:22:01;;;;;;;1.55;0.47;;;28.10;42.30;;;;;;5038366;28;20033;-86
2022/07/05 12:24:27;;;;;;;1.80;0.60;;;28.40;43.20;;;;;;5044573;28;20056;-88
2022/07/05 12:26:53;;;;;;;0.60;0.52;;;28.40;42.10;;;;;;5030600;28;20051;-86
2022/07/05 12:29:19;;;;;;;1.23;0.50;;;28.60;42.40;;;;;;5031922;28;20033;-86
2022/07/05 12:32:00;;;;;;;0.60;0.60;;;28.90;43.00;;;;;;5044301;28;20486;-86
2022/07/05 12:34:26;;;;;;;0.63;0.50;;;29.20;45.10;;;;;;5034183;28;20039;-87
2022/07/05 12:36:52;;;;;;;0.85;0.45;;;29.50;43.40;;;;;;5054279;28;20025;-87
2022/07/05 12:39:17;;;;;;;1.30;0.50;;;29.80;42.10;;;;;;5033212;28;20060;-87
2022/07/05 12:41:43;;;;;;;0.65;0.60;;;30.20;40.70;;;;;;5057636;28;20032;-86
2022/07/05 12:44:09;;;;;;;0.40;0.40;;;30.50;39.10;;;;;;5038713;28;20039;-86
2022/07/05 12:46:39;;;;;;;1.17;0.60;;;30.80;38.80;;;;;;5052883;28;20085;-88
2022/07/05 12:49:06;;;;;;;1.63;0.50;;;31.10;39.10;;;;;;5042634;28;20389;-86
2022/07/05 12:51:37;;;;;;;0.40;0.40;;;31.30;37.70;;;;;;5043682;28;20025;-85
2022/07/05 13:00:07;;;;;;;1.20;0.50;;;31.40;39.80;;;;;;5056228;28;20028;-86
2022/07/05 13:02:46;;;;;;;1.30;0.68;;;31.40;38.90;;;;;;5030300;28;20032;-86
2022/07/05 13:05:24;;;;;;;0.60;0.60;;;31.10;39.40;;;;;;5031941;28;20036;-85